sensor_id;sensor_type;location;lat;lon;timestamp;pressure;altitude;pressure_sealevel;temperature;humidity
37858;BME280;23695;55.868;37.472;2022-10-23T00:01:13;99372.72;;;7.46;65.04
37858;BME280;23695;55.868;37.472;2022-10-23T00:03:40;99377.59;;;7.44;65.08
37858;BME280;23695;55.868;37.472;2022-10-23T00:06:07;99371.94;;;7.46;65.02
37858;BME280;23695;55.868;37.472;2022-10-23T00:08:35;99365.44;;;7.47;64.89
37858;BME280;23695;55.868;37.472;2022-10-23T00:11:09;99366.31;;;7.33;65.06
37858;BME280;23695;55.868;37.472;2022-10-23T00:13:37;99363.31;;;7.35;65.38
37858;BME280;23695;55.868;37.472;2022-10-23T00:16:05;99360.63;;;7.35;65.00
37858;BME280;23695;55.868;37.472;2022-10-23T00:18:33;99361.53;;;7.30;65.16
37858;BME280;23695;55.868;37.472;2022-10-23T00:21:01;99360.19;;;7.19;65.54
37858;BME280;23695;55.868;37.472;2022-10-23T00:23:28;99357.34;;;7.16;65.46
37858;BME280;23695;55.868;37.472;2022-10-23T00:25:55;99347.72;;;7.23;65.27
37858;BME280;23695;55.868;37.472;2022-10-23T00:28:22;99342.88;;;7.25;65.77
37858;BME280;23695;55.868;37.472;2022-10-23T00:30:49;99342.88;;;7.25;65.40
37858;BME280;23695;55.868;37.472;2022-10-23T00:33:16;99338.22;;;7.17;65.44
37858;BME280;23695;55.868;37.472;2022-10-23T00:35:43;99335.09;;;7.24;65.26
37858;BME280;23695;55.868;37.472;2022-10-23T00:38:10;99330.03;;;7.22;65.94
37858;BME280;23695;55.868;37.472;2022-10-23T00:40:38;99328.81;;;7.28;65.27
37858;BME280;23695;55.868;37.472;2022-10-23T00:43:19;99322.81;;;7.31;65.34
37858;BME280;23695;55.868;37.472;2022-10-23T00:45:47;99318.75;;;7.34;65.50
37858;BME280;23695;55.868;37.472;2022-10-23T00:48:14;99317.97;;;7.33;65.32
37858;BME280;23695;55.868;37.472;2022-10-23T00:50:42;99318.19;;;7.23;65.07
37858;BME280;23695;55.868;37.472;2022-10-23T00:53:10;99317.09;;;7.24;65.35
37858;BME280;23695;55.868;37.472;2022-10-23T00:55:39;99311.72;;;7.24;64.85
37858;BME280;23695;55.868;37.472;2022-10-23T00:58:17;99305.56;;;7.24;65.17
37858;BME280;23695;55.868;37.472;2022-10-23T01:00:48;99305.56;;;7.24;65.22
37858;BME280;23695;55.868;37.472;2022-10-23T01:03:19;99306.00;;;7.17;65.14
37858;BME280;23695;55.868;37.472;2022-10-23T01:05:59;99305.06;;;7.22;64.95
37858;BME280;23695;55.868;37.472;2022-10-23T01:08:38;99300.56;;;7.08;65.25
37858;BME280;23695;55.868;37.472;2022-10-23T01:11:12;99295.69;;;7.10;65.54
37858;BME280;23695;55.868;37.472;2022-10-23T01:16:19;99300.44;;;6.91;65.66
37858;BME280;23695;55.868;37.472;2022-10-23T01:18:55;99289.09;;;6.94;65.46
37858;BME280;23695;55.868;37.472;2022-10-23T01:35:17;99283.34;;;6.87;65.21
37858;BME280;23695;55.868;37.472;2022-10-23T01:40:54;99282.00;;;6.76;65.47
37858;BME280;23695;55.868;37.472;2022-10-23T01:43:26;99277.53;;;6.71;65.04
37858;BME280;23695;55.868;37.472;2022-10-23T01:46:01;99269.69;;;6.61;65.15
37858;BME280;23695;55.868;37.472;2022-10-23T01:48:30;99264.47;;;6.56;65.32
37858;BME280;23695;55.868;37.472;2022-10-23T01:51:03;99274.72;;;6.54;65.07
37858;BME280;23695;55.868;37.472;2022-10-23T01:53:35;99270.88;;;6.33;65.86
37858;BME280;23695;55.868;37.472;2022-10-23T01:56:11;99271.09;;;6.36;65.71
37858;BME280;23695;55.868;37.472;2022-10-23T01:58:41;99269.91;;;6.29;65.70
37858;BME280;23695;55.868;37.472;2022-10-23T02:01:10;99264.63;;;6.23;65.47
37858;BME280;23695;55.868;37.472;2022-10-23T02:03:46;99266.03;;;6.21;65.62
37858;BME280;23695;55.868;37.472;2022-10-23T02:06:14;99262.34;;;6.17;65.40
37858;BME280;23695;55.868;37.472;2022-10-23T02:08:41;99258.69;;;6.13;65.38
37858;BME280;23695;55.868;37.472;2022-10-23T02:11:12;99255.53;;;6.11;65.48
37858;BME280;23695;55.868;37.472;2022-10-23T02:16:41;99253.84;;;6.01;65.72
37858;BME280;23695;55.868;37.472;2022-10-23T02:25:05;99248.44;;;5.87;65.81
37858;BME280;23695;55.868;37.472;2022-10-23T02:27:53;99254.13;;;5.86;66.19
37858;BME280;23695;55.868;37.472;2022-10-23T02:30:28;99250.44;;;5.82;66.28
37858;BME280;23695;55.868;37.472;2022-10-23T02:33:07;99246.94;;;5.81;66.36
37858;BME280;23695;55.868;37.472;2022-10-23T02:35:35;99242.13;;;5.83;66.38
37858;BME280;23695;55.868;37.472;2022-10-23T02:38:38;99251.34;;;5.77;66.53
37858;BME280;23695;55.868;37.472;2022-10-23T02:41:18;99247.88;;;5.77;66.79
37858;BME280;23695;55.868;37.472;2022-10-23T02:43:52;99248.56;;;5.68;66.89
37858;BME280;23695;55.868;37.472;2022-10-23T02:49:41;99240.72;;;5.58;67.38
37858;BME280;23695;55.868;37.472;2022-10-23T02:52:35;99239.63;;;5.59;67.35
37858;BME280;23695;55.868;37.472;2022-10-23T02:58:00;99230.28;;;5.57;67.39
37858;BME280;23695;55.868;37.472;2022-10-23T03:00:31;99235.44;;;5.53;67.52
37858;BME280;23695;55.868;37.472;2022-10-23T03:03:07;99227.69;;;5.52;67.42
37858;BME280;23695;55.868;37.472;2022-10-23T03:05:38;99222.16;;;5.48;67.52
37858;BME280;23695;55.868;37.472;2022-10-23T03:08:11;99228.00;;;5.50;67.57
37858;BME280;23695;55.868;37.472;2022-10-23T03:10:41;99223.63;;;5.54;67.40
37858;BME280;23695;55.868;37.472;2022-10-23T03:13:11;99223.94;;;5.53;67.37
37858;BME280;23695;55.868;37.472;2022-10-23T03:15:42;99217.47;;;5.54;67.31
37858;BME280;23695;55.868;37.472;2022-10-23T03:18:12;99209.94;;;5.42;67.82
37858;BME280;23695;55.868;37.472;2022-10-23T03:20:44;99204.28;;;5.44;67.64
37858;BME280;23695;55.868;37.472;2022-10-23T03:23:13;99212.03;;;5.45;67.71
37858;BME280;23695;55.868;37.472;2022-10-23T03:25:41;99202.22;;;5.40;67.70
37858;BME280;23695;55.868;37.472;2022-10-23T03:28:09;99206.56;;;5.36;68.11
37858;BME280;23695;55.868;37.472;2022-10-23T03:30:36;99202.22;;;5.40;68.09
37858;BME280;23695;55.868;37.472;2022-10-23T03:33:03;99194.19;;;5.40;68.00
37858;BME280;23695;55.868;37.472;2022-10-23T03:35:34;99199.00;;;5.38;67.74
37858;BME280;23695;55.868;37.472;2022-10-23T03:38:01;99199.63;;;5.35;67.97
37858;BME280;23695;55.868;37.472;2022-10-23T03:40:28;99199.13;;;5.33;68.12
37858;BME280;23695;55.868;37.472;2022-10-23T03:42:55;99197.25;;;5.34;68.06
37858;BME280;23695;55.868;37.472;2022-10-23T03:45:22;99192.47;;;5.31;68.17
37858;BME280;23695;55.868;37.472;2022-10-23T03:47:49;99193.34;;;5.26;68.32
37858;BME280;23695;55.868;37.472;2022-10-23T03:50:18;99193.06;;;5.28;68.16
37858;BME280;23695;55.868;37.472;2022-10-23T03:52:46;99192.38;;;5.22;68.46
37858;BME280;23695;55.868;37.472;2022-10-23T03:55:13;99193.72;;;5.20;68.36
37858;BME280;23695;55.868;37.472;2022-10-23T03:57:40;99188.09;;;5.21;68.15
37858;BME280;23695;55.868;37.472;2022-10-23T04:00:07;99183.94;;;5.15;68.74
37858;BME280;23695;55.868;37.472;2022-10-23T04:02:45;99191.53;;;5.08;68.90
37858;BME280;23695;55.868;37.472;2022-10-23T04:05:13;99189.16;;;5.06;69.25
37858;BME280;23695;55.868;37.472;2022-10-23T04:07:50;99177.97;;;5.04;69.30
37858;BME280;23695;55.868;37.472;2022-10-23T04:10:17;99182.22;;;5.05;69.10
37858;BME280;23695;55.868;37.472;2022-10-23T04:12:44;99172.88;;;4.89;69.82
37858;BME280;23695;55.868;37.472;2022-10-23T04:15:11;99177.34;;;4.94;69.56
37858;BME280;23695;55.868;37.472;2022-10-23T04:17:41;99181.50;;;5.00;69.37
37858;BME280;23695;55.868;37.472;2022-10-23T04:20:08;99183.41;;;4.99;69.56
37858;BME280;23695;55.868;37.472;2022-10-23T04:22:35;99183.31;;;5.04;69.41
37858;BME280;23695;55.868;37.472;2022-10-23T04:25:03;99180.03;;;5.07;69.00
37858;BME280;23695;55.868;37.472;2022-10-23T04:27:32;99180.25;;;5.11;68.90
37858;BME280;23695;55.868;37.472;2022-10-23T04:30:00;99175.69;;;5.11;69.14
37858;BME280;23695;55.868;37.472;2022-10-23T04:32:30;99181.22;;;5.01;69.67
37858;BME280;23695;55.868;37.472;2022-10-23T04:34:57;99176.78;;;5.10;69.31
37858;BME280;23695;55.868;37.472;2022-10-23T04:37:24;99184.31;;;5.08;69.41
37858;BME280;23695;55.868;37.472;2022-10-23T04:39:51;99175.47;;;5.08;69.56
37858;BME280;23695;55.868;37.472;2022-10-23T04:42:18;99178.09;;;5.13;69.60
37858;BME280;23695;55.868;37.472;2022-10-23T04:44:46;99169.63;;;5.20;69.49
37858;BME280;23695;55.868;37.472;2022-10-23T04:47:13;99170.94;;;5.08;70.08
37858;BME280;23695;55.868;37.472;2022-10-23T04:49:53;99167.06;;;5.15;69.71
37858;BME280;23695;55.868;37.472;2022-10-23T04:52:34;99164.09;;;5.16;69.63
37858;BME280;23695;55.868;37.472;2022-10-23T04:55:14;99163.91;;;5.13;69.90
37858;BME280;23695;55.868;37.472;2022-10-23T04:57:48;99162.03;;;5.13;69.48
37858;BME280;23695;55.868;37.472;2022-10-23T05:00:19;99163.00;;;5.17;69.60
37858;BME280;23695;55.868;37.472;2022-10-23T05:02:50;99165.00;;;5.25;69.43
37858;BME280;23695;55.868;37.472;2022-10-23T05:05:18;99159.16;;;5.23;69.55
37858;BME280;23695;55.868;37.472;2022-10-23T05:07:58;99156.97;;;5.25;69.79
37858;BME280;23695;55.868;37.472;2022-10-23T05:10:41;99148.25;;;5.33;69.60
37858;BME280;23695;55.868;37.472;2022-10-23T05:13:11;99157.78;;;5.39;69.32
37858;BME280;23695;55.868;37.472;2022-10-23T05:15:39;99166.41;;;5.50;69.53
37858;BME280;23695;55.868;37.472;2022-10-23T05:18:12;99161.31;;;5.62;69.35
37858;BME280;23695;55.868;37.472;2022-10-23T05:20:44;99167.47;;;5.77;69.38
37858;BME280;23695;55.868;37.472;2022-10-23T05:23:13;99163.56;;;5.83;68.91
37858;BME280;23695;55.868;37.472;2022-10-23T05:25:51;99162.50;;;5.97;68.67
37858;BME280;23695;55.868;37.472;2022-10-23T05:28:18;99159.91;;;6.06;68.73
37858;BME280;23695;55.868;37.472;2022-10-23T05:30:45;99151.81;;;6.20;68.98
37858;BME280;23695;55.868;37.472;2022-10-23T05:33:15;99163.09;;;6.31;68.41
37858;BME280;23695;55.868;37.472;2022-10-23T05:35:43;99164.28;;;6.38;68.20
37858;BME280;23695;55.868;37.472;2022-10-23T05:38:13;99158.59;;;6.40;68.10
37858;BME280;23695;55.868;37.472;2022-10-23T05:40:41;99151.84;;;6.42;67.90
37858;BME280;23695;55.868;37.472;2022-10-23T05:43:13;99152.94;;;6.41;67.86
37858;BME280;23695;55.868;37.472;2022-10-23T05:46:03;99145.31;;;6.35;67.56
37858;BME280;23695;55.868;37.472;2022-10-23T05:48:44;99149.34;;;6.46;67.87
37858;BME280;23695;55.868;37.472;2022-10-23T05:51:24;99148.31;;;6.56;67.47
37858;BME280;23695;55.868;37.472;2022-10-23T05:53:58;99148.97;;;6.61;67.62
37858;BME280;23695;55.868;37.472;2022-10-23T05:56:30;99147.13;;;6.70;67.26
37858;BME280;23695;55.868;37.472;2022-10-23T05:59:06;99136.94;;;6.81;66.95
37858;BME280;23695;55.868;37.472;2022-10-23T06:01:46;99136.22;;;6.89;66.86
37858;BME280;23695;55.868;37.472;2022-10-23T06:04:19;99134.91;;;6.87;66.48
37858;BME280;23695;55.868;37.472;2022-10-23T06:07:16;99136.25;;;7.06;66.59
37858;BME280;23695;55.868;37.472;2022-10-23T06:09:44;99120.53;;;7.22;66.30
37858;BME280;23695;55.868;37.472;2022-10-23T06:12:12;99113.28;;;7.23;65.90
37858;BME280;23695;55.868;37.472;2022-10-23T06:14:41;99116.19;;;7.35;65.29
37858;BME280;23695;55.868;37.472;2022-10-23T06:17:09;99112.34;;;7.27;65.03
37858;BME280;23695;55.868;37.472;2022-10-23T06:19:42;99111.13;;;7.33;64.90
37858;BME280;23695;55.868;37.472;2022-10-23T06:22:09;99104.31;;;7.36;64.63
37858;BME280;23695;55.868;37.472;2022-10-23T06:24:46;99106.19;;;7.27;64.93
37858;BME280;23695;55.868;37.472;2022-10-23T06:27:18;99099.41;;;7.29;64.61
37858;BME280;23695;55.868;37.472;2022-10-23T06:29:46;99094.69;;;7.35;64.47
37858;BME280;23695;55.868;37.472;2022-10-23T06:32:13;99097.97;;;7.32;64.40
37858;BME280;23695;55.868;37.472;2022-10-23T06:34:45;99085.34;;;7.32;64.56
37858;BME280;23695;55.868;37.472;2022-10-23T06:37:12;99087.88;;;7.37;64.34
37858;BME280;23695;55.868;37.472;2022-10-23T06:39:43;99086.28;;;7.28;64.35
37858;BME280;23695;55.868;37.472;2022-10-23T06:42:13;99091.22;;;7.34;64.42
37858;BME280;23695;55.868;37.472;2022-10-23T06:45:06;99080.50;;;7.52;64.05
37858;BME280;23695;55.868;37.472;2022-10-23T06:47:53;99081.91;;;7.49;64.07
37858;BME280;23695;55.868;37.472;2022-10-23T06:50:52;99077.66;;;7.65;64.25
37858;BME280;23695;55.868;37.472;2022-10-23T06:53:25;99066.47;;;7.81;63.86
37858;BME280;23695;55.868;37.472;2022-10-23T06:56:05;99066.78;;;7.97;63.10
37858;BME280;23695;55.868;37.472;2022-10-23T06:58:35;99057.44;;;8.03;63.55
37858;BME280;23695;55.868;37.472;2022-10-23T07:01:12;99063.91;;;8.10;62.86
37858;BME280;23695;55.868;37.472;2022-10-23T07:03:41;99062.53;;;8.13;63.33
37858;BME280;23695;55.868;37.472;2022-10-23T07:06:09;99066.78;;;8.22;63.18
37858;BME280;23695;55.868;37.472;2022-10-23T07:08:37;99056.16;;;8.43;62.64
37858;BME280;23695;55.868;37.472;2022-10-23T07:11:20;99052.00;;;8.63;62.51
37858;BME280;23695;55.868;37.472;2022-10-23T07:13:47;99053.53;;;8.73;61.64
37858;BME280;23695;55.868;37.472;2022-10-23T07:16:21;99053.00;;;8.88;61.38
37858;BME280;23695;55.868;37.472;2022-10-23T07:18:54;99055.34;;;8.98;61.12
37858;BME280;23695;55.868;37.472;2022-10-23T07:21:34;99049.28;;;9.10;61.27
37858;BME280;23695;55.868;37.472;2022-10-23T07:24:20;99043.66;;;9.24;60.80
37858;BME280;23695;55.868;37.472;2022-10-23T07:26:48;99040.50;;;9.22;60.29
37858;BME280;23695;55.868;37.472;2022-10-23T07:29:16;99035.16;;;9.13;60.01
37858;BME280;23695;55.868;37.472;2022-10-23T07:31:43;99041.41;;;9.26;59.67
37858;BME280;23695;55.868;37.472;2022-10-23T07:34:29;99029.34;;;9.32;59.71
37858;BME280;23695;55.868;37.472;2022-10-23T07:37:20;99033.16;;;9.31;59.81
37858;BME280;23695;55.868;37.472;2022-10-23T07:39:47;99041.09;;;9.27;59.66
37858;BME280;23695;55.868;37.472;2022-10-23T07:42:14;99039.94;;;9.37;59.42
37858;BME280;23695;55.868;37.472;2022-10-23T07:44:41;99030.41;;;9.40;59.26
37858;BME280;23695;55.868;37.472;2022-10-23T07:47:08;99031.91;;;9.28;59.50
37858;BME280;23695;55.868;37.472;2022-10-23T07:49:38;99033.34;;;9.26;59.72
37858;BME280;23695;55.868;37.472;2022-10-23T07:52:06;99027.44;;;9.32;59.62
37858;BME280;23695;55.868;37.472;2022-10-23T07:54:53;99029.34;;;9.32;59.47
37858;BME280;23695;55.868;37.472;2022-10-23T07:57:20;99025.59;;;9.24;59.42
37858;BME280;23695;55.868;37.472;2022-10-23T07:59:53;99017.41;;;9.42;59.56
37858;BME280;23695;55.868;37.472;2022-10-23T08:02:22;99019.69;;;9.52;59.05
37858;BME280;23695;55.868;37.472;2022-10-23T08:04:51;99013.91;;;9.62;58.70
37858;BME280;23695;55.868;37.472;2022-10-23T08:07:24;99010.69;;;9.69;58.61
37858;BME280;23695;55.868;37.472;2022-10-23T08:09:54;99015.31;;;9.68;58.87
37858;BME280;23695;55.868;37.472;2022-10-23T08:12:21;99012.28;;;9.70;58.85
37858;BME280;23695;55.868;37.472;2022-10-23T08:14:48;99012.53;;;9.77;58.36
37858;BME280;23695;55.868;37.472;2022-10-23T08:17:15;99015.13;;;9.73;58.30
37858;BME280;23695;55.868;37.472;2022-10-23T08:20:01;99020.56;;;9.64;58.65
37858;BME280;23695;55.868;37.472;2022-10-23T08:22:33;99010.63;;;9.56;58.55
37858;BME280;23695;55.868;37.472;2022-10-23T08:25:03;99013.41;;;9.48;58.28
37858;BME280;23695;55.868;37.472;2022-10-23T08:27:30;99013.56;;;9.43;58.71
37858;BME280;23695;55.868;37.472;2022-10-23T08:29:57;99017.22;;;9.47;58.93
37858;BME280;23695;55.868;37.472;2022-10-23T08:32:29;99006.44;;;9.47;59.17
37858;BME280;23695;55.868;37.472;2022-10-23T08:35:01;99013.47;;;9.60;59.22
37858;BME280;23695;55.868;37.472;2022-10-23T08:37:31;99009.78;;;9.64;58.56
37858;BME280;23695;55.868;37.472;2022-10-23T08:39:58;99004.34;;;9.73;58.62
37858;BME280;23695;55.868;37.472;2022-10-23T08:43:02;98996.94;;;9.61;58.70
37858;BME280;23695;55.868;37.472;2022-10-23T08:45:35;99000.09;;;9.43;58.92
37858;BME280;23695;55.868;37.472;2022-10-23T08:48:27;98996.16;;;9.40;59.18
37858;BME280;23695;55.868;37.472;2022-10-23T08:51:40;98997.16;;;9.56;59.13
37858;BME280;23695;55.868;37.472;2022-10-23T08:54:21;98994.97;;;9.50;59.16
37858;BME280;23695;55.868;37.472;2022-10-23T08:56:57;98993.69;;;9.56;59.10
37858;BME280;23695;55.868;37.472;2022-10-23T08:59:29;98998.84;;;9.61;58.74
37858;BME280;23695;55.868;37.472;2022-10-23T09:02:01;98987.22;;;9.48;59.03
37858;BME280;23695;55.868;37.472;2022-10-23T09:04:30;98987.50;;;9.55;58.96
37858;BME280;23695;55.868;37.472;2022-10-23T09:07:14;98990.44;;;9.42;59.05
37858;BME280;23695;55.868;37.472;2022-10-23T09:10:09;98986.75;;;9.25;59.63
37858;BME280;23695;55.868;37.472;2022-10-23T09:12:40;98988.69;;;9.16;59.87
37858;BME280;23695;55.868;37.472;2022-10-23T09:15:26;98977.41;;;9.23;59.95
37858;BME280;23695;55.868;37.472;2022-10-23T09:18:00;98977.75;;;9.21;60.24
37858;BME280;23695;55.868;37.472;2022-10-23T09:20:34;98974.72;;;9.23;60.19
37858;BME280;23695;55.868;37.472;2022-10-23T09:23:17;98970.78;;;9.20;59.83
37858;BME280;23695;55.868;37.472;2022-10-23T09:25:46;98966.31;;;9.24;60.20
37858;BME280;23695;55.868;37.472;2022-10-23T09:28:25;98960.75;;;9.29;60.40
37858;BME280;23695;55.868;37.472;2022-10-23T09:30:53;98970.00;;;9.41;60.18
37858;BME280;23695;55.868;37.472;2022-10-23T09:33:31;98965.78;;;9.52;60.32
37858;BME280;23695;55.868;37.472;2022-10-23T09:41:17;98953.78;;;9.28;60.50
37858;BME280;23695;55.868;37.472;2022-10-23T09:43:45;98952.16;;;9.27;60.53
37858;BME280;23695;55.868;37.472;2022-10-23T09:46:18;98945.53;;;9.25;60.74
37858;BME280;23695;55.868;37.472;2022-10-23T09:48:45;98946.66;;;9.24;60.61
37858;BME280;23695;55.868;37.472;2022-10-23T09:51:24;98942.56;;;9.18;60.76
37858;BME280;23695;55.868;37.472;2022-10-23T09:53:56;98941.88;;;9.29;60.85
37858;BME280;23695;55.868;37.472;2022-10-23T09:56:45;98940.09;;;9.33;60.77
37858;BME280;23695;55.868;37.472;2022-10-23T09:59:23;98927.78;;;9.45;60.70
37858;BME280;23695;55.868;37.472;2022-10-23T10:01:55;98925.81;;;9.33;60.79
37858;BME280;23695;55.868;37.472;2022-10-23T10:04:41;98932.53;;;9.27;60.75
37858;BME280;23695;55.868;37.472;2022-10-23T10:07:19;98931.00;;;9.17;61.20
37858;BME280;23695;55.868;37.472;2022-10-23T10:09:47;98940.59;;;9.06;61.89
37858;BME280;23695;55.868;37.472;2022-10-23T10:26:10;98930.25;;;8.87;62.49
37858;BME280;23695;55.868;37.472;2022-10-23T10:29:01;98928.00;;;8.68;63.26
37858;BME280;23695;55.868;37.472;2022-10-23T10:34:29;98918.94;;;8.73;63.06
37858;BME280;23695;55.868;37.472;2022-10-23T10:37:49;98909.31;;;8.63;63.81
37858;BME280;23695;55.868;37.472;2022-10-23T10:40:30;98909.69;;;8.53;64.07
37858;BME280;23695;55.868;37.472;2022-10-23T10:43:10;98912.09;;;8.46;63.83
37858;BME280;23695;55.868;37.472;2022-10-23T10:54:46;98890.00;;;8.32;65.00
37858;BME280;23695;55.868;37.472;2022-10-23T10:57:38;98876.22;;;8.33;65.52
37858;BME280;23695;55.868;37.472;2022-10-23T11:00:21;98877.78;;;8.43;64.67
37858;BME280;23695;55.868;37.472;2022-10-23T11:02:57;98872.34;;;8.51;64.30
37858;BME280;23695;55.868;37.472;2022-10-23T11:05:35;98873.59;;;8.54;64.64
37858;BME280;23695;55.868;37.472;2022-10-23T11:10:59;98866.97;;;8.51;64.67
37858;BME280;23695;55.868;37.472;2022-10-23T11:13:37;98865.19;;;8.56;64.67
37858;BME280;23695;55.868;37.472;2022-10-23T11:16:18;98858.75;;;8.48;65.21
37858;BME280;23695;55.868;37.472;2022-10-23T11:21:48;98849.03;;;8.56;65.19
37858;BME280;23695;55.868;37.472;2022-10-23T11:27:04;98848.41;;;8.59;65.35
37858;BME280;23695;55.868;37.472;2022-10-23T11:30:00;98853.78;;;8.59;65.11
37858;BME280;23695;55.868;37.472;2022-10-23T11:32:55;98848.25;;;8.55;65.36
37858;BME280;23695;55.868;37.472;2022-10-23T11:35:56;98839.44;;;8.46;65.73
37858;BME280;23695;55.868;37.472;2022-10-23T11:38:32;98839.78;;;8.44;65.81
37858;BME280;23695;55.868;37.472;2022-10-23T11:41:03;98833.34;;;8.28;66.24
37858;BME280;23695;55.868;37.472;2022-10-23T11:43:32;98830.94;;;8.06;67.42
37858;BME280;23695;55.868;37.472;2022-10-23T11:46:28;98835.28;;;8.19;66.78
37858;BME280;23695;55.868;37.472;2022-10-23T11:48:56;98825.47;;;8.23;66.48
37858;BME280;23695;55.868;37.472;2022-10-23T11:51:44;98826.06;;;8.29;66.62
37858;BME280;23695;55.868;37.472;2022-10-23T12:02:20;98818.47;;;8.60;66.78
37858;BME280;23695;55.868;37.472;2022-10-23T12:04:52;98813.69;;;8.66;66.51
37858;BME280;23695;55.868;37.472;2022-10-23T12:07:27;98809.69;;;8.72;66.33
37858;BME280;23695;55.868;37.472;2022-10-23T12:09:57;98812.25;;;8.68;66.38
37858;BME280;23695;55.868;37.472;2022-10-23T12:12:29;98809.34;;;8.73;66.31
37858;BME280;23695;55.868;37.472;2022-10-23T12:15:17;98813.94;;;8.73;66.50
37858;BME280;23695;55.868;37.472;2022-10-23T12:17:46;98813.31;;;8.76;66.33
37858;BME280;23695;55.868;37.472;2022-10-23T12:40:32;98798.66;;;8.06;67.90
37858;BME280;23695;55.868;37.472;2022-10-23T12:42:59;98801.97;;;8.03;68.28
37858;BME280;23695;55.868;37.472;2022-10-23T12:45:29;98801.16;;;8.11;68.25
37858;BME280;23695;55.868;37.472;2022-10-23T12:48:00;98799.56;;;8.10;68.35
37858;BME280;23695;55.868;37.472;2022-10-23T12:50:29;98787.56;;;8.07;69.19
37858;BME280;23695;55.868;37.472;2022-10-23T12:53:00;98799.72;;;8.13;68.68
37858;BME280;23695;55.868;37.472;2022-10-23T12:55:58;98798.31;;;8.07;69.31
37858;BME280;23695;55.868;37.472;2022-10-23T12:58:33;98790.38;;;8.11;69.28
37858;BME280;23695;55.868;37.472;2022-10-23T13:01:05;98790.22;;;8.16;69.17
37858;BME280;23695;55.868;37.472;2022-10-23T13:03:33;98779.91;;;8.18;69.04
37858;BME280;23695;55.868;37.472;2022-10-23T13:06:01;98781.94;;;8.21;69.37
37858;BME280;23695;55.868;37.472;2022-10-23T13:08:47;98780.84;;;8.22;69.52
37858;BME280;23695;55.868;37.472;2022-10-23T13:11:29;98778.97;;;8.22;68.86
37858;BME280;23695;55.868;37.472;2022-10-23T13:13:59;98776.78;;;8.16;69.56
37858;BME280;23695;55.868;37.472;2022-10-23T13:16:27;98776.19;;;8.02;69.93
37858;BME280;23695;55.868;37.472;2022-10-23T13:18:54;98773.19;;;8.03;69.72
37858;BME280;23695;55.868;37.472;2022-10-23T13:21:23;98764.81;;;8.05;69.84
37858;BME280;23695;55.868;37.472;2022-10-23T13:23:51;98762.91;;;8.05;69.90
37858;BME280;23695;55.868;37.472;2022-10-23T13:26:37;98763.38;;;8.07;69.82
37858;BME280;23695;55.868;37.472;2022-10-23T13:29:28;98756.41;;;8.06;70.05
37858;BME280;23695;55.868;37.472;2022-10-23T13:31:56;98763.69;;;8.06;69.79
37858;BME280;23695;55.868;37.472;2022-10-23T13:34:28;98756.75;;;8.05;70.21
37858;BME280;23695;55.868;37.472;2022-10-23T13:40:01;98759.66;;;7.91;70.82
37858;BME280;23695;55.868;37.472;2022-10-23T13:42:30;98756.00;;;7.95;70.58
37858;BME280;23695;55.868;37.472;2022-10-23T13:44:57;98755.81;;;8.01;70.99
37858;BME280;23695;55.868;37.472;2022-10-23T13:47:24;98753.00;;;7.97;71.32
37858;BME280;23695;55.868;37.472;2022-10-23T13:49:51;98746.28;;;8.03;71.05
37858;BME280;23695;55.868;37.472;2022-10-23T13:52:21;98751.94;;;8.10;71.33
37858;BME280;23695;55.868;37.472;2022-10-23T13:54:49;98749.88;;;8.16;70.94
37858;BME280;23695;55.868;37.472;2022-10-23T13:57:16;98745.00;;;8.09;71.17
37858;BME280;23695;55.868;37.472;2022-10-23T13:59:43;98745.78;;;8.10;70.77
37858;BME280;23695;55.868;37.472;2022-10-23T14:02:17;98736.97;;;8.01;71.32
37858;BME280;23695;55.868;37.472;2022-10-23T14:04:45;98736.06;;;7.97;71.40
37858;BME280;23695;55.868;37.472;2022-10-23T14:07:13;98743.47;;;8.00;71.53
37858;BME280;23695;55.868;37.472;2022-10-23T14:09:40;98734.94;;;7.98;71.25
37858;BME280;23695;55.868;37.472;2022-10-23T14:12:07;98742.38;;;8.01;71.84
37858;BME280;23695;55.868;37.472;2022-10-23T14:14:34;98736.81;;;8.06;71.74
37858;BME280;23695;55.868;37.472;2022-10-23T14:17:01;98734.69;;;8.11;71.84
37858;BME280;23695;55.868;37.472;2022-10-23T14:19:28;98733.41;;;8.17;71.69
37858;BME280;23695;55.868;37.472;2022-10-23T14:21:55;98734.31;;;8.21;71.90
37858;BME280;23695;55.868;37.472;2022-10-23T14:24:22;98726.91;;;8.18;71.74
37858;BME280;23695;55.868;37.472;2022-10-23T14:26:49;98723.56;;;8.21;71.95
37858;BME280;23695;55.868;37.472;2022-10-23T14:29:16;98730.53;;;8.22;71.96
37858;BME280;23695;55.868;37.472;2022-10-23T14:31:50;98727.69;;;8.19;71.41
37858;BME280;23695;55.868;37.472;2022-10-23T14:34:17;98727.00;;;8.01;72.47
37858;BME280;23695;55.868;37.472;2022-10-23T14:36:44;98729.97;;;8.08;72.10
37858;BME280;23695;55.868;37.472;2022-10-23T14:39:16;98718.56;;;8.11;71.69
37858;BME280;23695;55.868;37.472;2022-10-23T14:41:44;98718.09;;;8.09;71.98
37858;BME280;23695;55.868;37.472;2022-10-23T14:44:11;98718.44;;;8.08;72.00
37858;BME280;23695;55.868;37.472;2022-10-23T14:46:38;98714.19;;;8.07;72.03
37858;BME280;23695;55.868;37.472;2022-10-23T14:49:05;98714.31;;;8.10;72.27
37858;BME280;23695;55.868;37.472;2022-10-23T14:51:32;98707.34;;;8.09;71.84
37858;BME280;23695;55.868;37.472;2022-10-23T14:54:02;98714.63;;;8.09;72.15
37858;BME280;23695;55.868;37.472;2022-10-23T14:56:32;98709.59;;;8.07;72.09
37858;BME280;23695;55.868;37.472;2022-10-23T14:59:00;98707.84;;;8.03;72.20
37858;BME280;23695;55.868;37.472;2022-10-23T15:01:38;98704.72;;;8.01;72.52
37858;BME280;23695;55.868;37.472;2022-10-23T15:04:11;98703.97;;;7.91;72.87
37858;BME280;23695;55.868;37.472;2022-10-23T15:06:40;98690.38;;;7.97;72.59
37858;BME280;23695;55.868;37.472;2022-10-23T15:09:08;98692.44;;;7.91;73.04
37858;BME280;23695;55.868;37.472;2022-10-23T15:11:35;98694.28;;;7.99;72.99
37858;BME280;23695;55.868;37.472;2022-10-23T15:14:02;98687.47;;;8.02;73.16
37858;BME280;23695;55.868;37.472;2022-10-23T15:16:29;98693.44;;;8.07;73.17